Terminal Aerodrome Forecast
Issued by NWS

Home | Current Version | Previous Version | Text Only | Print | Product List | Glossary On
Versions: 1 2 3 4 5 6 7 8 9 10 11 12 13 14 15 16 17 18
000
FTUS44 KLZK 031100
TAFPBF
TAF
KPBF 031130Z 0312/0412 VRB03KT 1/2SM FG OVC002
     FM031400 21005KT 3SM BR VCSH OVC004
     FM031800 21009KT 4SM BR VCSH OVC004
     FM040600 20007KT 4SM -RA BR OVC004=

USA.gov is the U.S. government's official web portal to all federal, state and local government web resources and services.